Time;durP1;ratioP1;P1;durP2;ratioP2;P2;SDS_P1;SDS_P2;PMS_P1;PMS_P2;Temp;Humidity;BMP_temperature;BMP_pressure;BME280_temperature;BME280_humidity;BME280_pressure;Samples;Min_cycle;Max_cycle;Signal;HPM_P1;HPM_P2
2023/07/28 00:00:42;;;;;;;;;7.00;7.00;;;;;;;;5124197;27;45297;-73
2023/07/28 00:03:08;;;;;;;;;5.33;5.33;;;;;;;;5124141;27;45433;-73
2023/07/28 00:05:33;;;;;;;;;7.67;7.67;;;;;;;;5123791;27;46474;-73
2023/07/28 00:07:58;;;;;;;;;6.00;6.00;;;;;;;;5124035;27;45281;-73
2023/07/28 00:10:24;;;;;;;;;7.67;7.67;;;;;;;;5123930;27;45462;-73
2023/07/28 00:12:49;;;;;;;;;6.33;5.33;;;;;;;;5123807;27;45447;-73
2023/07/28 00:15:14;;;;;;;;;5.67;5.67;;;;;;;;5123806;27;46296;-73
2023/07/28 00:17:39;;;;;;;;;6.00;6.00;;;;;;;;5123816;27;45333;-73
2023/07/28 00:20:05;;;;;;;;;8.00;8.00;;;;;;;;5124102;27;45415;-73
2023/07/28 00:22:30;;;;;;;;;5.00;5.00;;;;;;;;5123669;27;45809;-73
2023/07/28 00:24:55;;;;;;;;;4.33;4.33;;;;;;;;5123579;27;48543;-73
2023/07/28 00:27:21;;;;;;;;;5.33;5.33;;;;;;;;5142467;27;45421;-73
2023/07/28 00:29:46;;;;;;;;;5.00;5.00;;;;;;;;5111084;27;45340;-73
2023/07/28 00:32:11;;;;;;;;;4.00;3.67;;;;;;;;5102930;27;47406;-72
2023/07/28 00:34:36;;;;;;;;;6.00;5.00;;;;;;;;5102908;27;45427;-73
2023/07/28 00:37:01;;;;;;;;;4.33;4.33;;;;;;;;5102809;27;45345;-73
2023/07/28 00:39:26;;;;;;;;;5.33;5.33;;;;;;;;5103009;27;45361;-72
2023/07/28 00:41:52;;;;;;;;;4.67;4.67;;;;;;;;5102706;27;45762;-73
2023/07/28 00:44:17;;;;;;;;;6.67;4.67;;;;;;;;5102690;27;47748;-73
2023/07/28 00:46:43;;;;;;;;;5.33;5.33;;;;;;;;5103004;27;45738;-72
2023/07/28 00:49:08;;;;;;;;;5.67;5.67;;;;;;;;5102764;27;45374;-73
2023/07/28 00:51:35;;;;;;;;;5.00;5.00;;;;;;;;5102510;27;45771;-73
2023/07/28 00:54:01;;;;;;;;;6.00;6.00;;;;;;;;5102456;27;45484;-73
2023/07/28 00:56:27;;;;;;;;;5.33;5.33;;;;;;;;5102804;27;45833;-73
2023/07/28 00:58:53;;;;;;;;;4.67;4.33;;;;;;;;5102748;27;45469;-73
2023/07/28 01:01:18;;;;;;;;;4.00;4.00;;;;;;;;5102587;27;46016;-73
2023/07/28 01:03:43;;;;;;;;;6.33;5.67;;;;;;;;5102308;27;45674;-73
2023/07/28 01:06:27;;;;;;;;;6.67;6.33;;;;;;;;5102376;27;45405;-73
2023/07/28 01:08:53;;;;;;;;;4.00;4.00;;;;;;;;5101369;27;45300;-73
2023/07/28 01:11:18;;;;;;;;;3.33;3.33;;;;;;;;5101054;27;45522;-73
2023/07/28 01:13:43;;;;;;;;;9.00;7.00;;;;;;;;5102430;27;48293;-73
2023/07/28 01:16:08;;;;;;;;;5.67;4.33;;;;;;;;5102394;27;45377;-73
2023/07/28 01:18:33;;;;;;;;;4.00;4.00;;;;;;;;5085619;27;45338;-72
2023/07/28 01:21:00;;;;;;;;;6.00;6.00;;;;;;;;5102209;27;46261;-73
2023/07/28 01:23:44;;;;;;;;;6.00;6.00;;;;;;;;5101853;27;46877;-73
2023/07/28 01:26:10;;;;;;;;;7.33;7.33;;;;;;;;5102039;27;45415;-73
2023/07/28 01:28:36;;;;;;;;;6.67;6.00;;;;;;;;5104265;27;45488;-73
2023/07/28 01:31:05;;;;;;;;;6.00;6.00;;;;;;;;5122915;27;45911;-73
2023/07/28 01:33:30;;;;;;;;;6.33;6.33;;;;;;;;5122391;27;47921;-73
2023/07/28 01:35:55;;;;;;;;;5.33;5.33;;;;;;;;5122763;27;45239;-73
2023/07/28 01:38:21;;;;;;;;;7.00;7.00;;;;;;;;5122900;27;45268;-73
2023/07/28 01:40:46;;;;;;;;;6.67;6.33;;;;;;;;5122397;27;45818;-73
2023/07/28 01:43:11;;;;;;;;;6.00;6.00;;;;;;;;5122641;27;47560;-73
2023/07/28 01:45:37;;;;;;;;;5.00;5.00;;;;;;;;5122710;27;45289;-73
2023/07/28 01:48:02;;;;;;;;;7.00;5.67;;;;;;;;5122885;27;45396;-73
2023/07/28 01:50:27;;;;;;;;;5.67;5.67;;;;;;;;5122138;27;47648;-73
2023/07/28 01:52:52;;;;;;;;;5.00;5.00;;;;;;;;5122541;27;46422;-73
2023/07/28 01:55:18;;;;;;;;;7.00;6.00;;;;;;;;5122300;27;45623;-73
2023/07/28 01:57:51;;;;;;;;;7.00;7.00;;;;;;;;5122553;27;45347;-73
2023/07/28 02:00:16;;;;;;;;;4.00;4.00;;;;;;;;5122305;27;46483;-73
2023/07/28 02:02:41;;;;;;;;;5.00;5.00;;;;;;;;5122261;27;47879;-73
2023/07/28 02:05:07;;;;;;;;;5.67;5.00;;;;;;;;5141216;27;45216;-73
2023/07/28 02:07:32;;;;;;;;;4.33;4.33;;;;;;;;5141209;27;45253;-73
2023/07/28 02:09:57;;;;;;;;;6.00;6.00;;;;;;;;5122216;27;47263;-73
2023/07/28 02:12:22;;;;;;;;;4.00;4.00;;;;;;;;5122125;27;46927;-73
2023/07/28 02:14:47;;;;;;;;;6.00;5.00;;;;;;;;5122306;27;45451;-73
2023/07/28 02:17:13;;;;;;;;;5.33;5.00;;;;;;;;5141129;27;45479;-73
2023/07/28 02:19:38;;;;;;;;;5.33;5.33;;;;;;;;5122210;27;45587;-74
2023/07/28 02:22:03;;;;;;;;;6.67;6.67;;;;;;;;5124345;27;46913;-73
2023/07/28 02:24:29;;;;;;;;;2.00;2.00;;;;;;;;5125422;27;45479;-73
2023/07/28 02:26:54;;;;;;;;;7.00;5.33;;;;;;;;5126077;27;45372;-73
2023/07/28 02:29:19;;;;;;;;;5.67;5.00;;;;;;;;5116563;27;45529;-73
2023/07/28 02:31:45;;;;;;;;;3.67;3.67;;;;;;;;5105008;27;48143;-73
2023/07/28 02:34:10;;;;;;;;;5.00;5.00;;;;;;;;5104626;27;45385;-73
2023/07/28 02:36:35;;;;;;;;;4.00;4.00;;;;;;;;5104906;27;45476;-73
2023/07/28 02:39:00;;;;;;;;;4.67;4.00;;;;;;;;5103389;27;45669;-73
2023/07/28 02:41:25;;;;;;;;;5.00;5.00;;;;;;;;5104685;27;47379;-73
2023/07/28 02:43:51;;;;;;;;;3.67;3.67;;;;;;;;5104814;27;45757;-73
2023/07/28 02:46:16;;;;;;;;;5.00;5.00;;;;;;;;5104923;27;45334;-73
2023/07/28 02:48:41;;;;;;;;;5.33;5.33;;;;;;;;5104433;27;46002;-73
2023/07/28 02:51:06;;;;;;;;;6.00;5.00;;;;;;;;5104444;27;45378;-72
2023/07/28 02:53:31;;;;;;;;;4.67;4.00;;;;;;;;5104485;27;45357;-73
2023/07/28 02:55:57;;;;;;;;;3.00;3.00;;;;;;;;5104490;27;45377;-73
2023/07/28 02:58:22;;;;;;;;;4.00;4.00;;;;;;;;5104672;27;45739;-73
2023/07/28 03:00:47;;;;;;;;;6.67;5.67;;;;;;;;5104344;27;46723;-73
2023/07/28 03:03:12;;;;;;;;;4.33;4.33;;;;;;;;5104602;27;45280;-73
2023/07/28 03:05:38;;;;;;;;;4.00;4.00;;;;;;;;5104375;27;45188;-73
2023/07/28 03:08:04;;;;;;;;;6.00;4.33;;;;;;;;5104473;27;46593;-73
2023/07/28 03:10:29;;;;;;;;;4.00;4.00;;;;;;;;5104104;27;48303;-73
2023/07/28 03:12:55;;;;;;;;;4.00;4.00;;;;;;;;5104341;27;45805;-72
2023/07/28 03:15:21;;;;;;;;;5.00;4.00;;;;;;;;5104583;27;45243;-73
2023/07/28 03:17:47;;;;;;;;;3.33;2.00;;;;;;;;5104259;27;47285;-73
2023/07/28 03:20:12;;;;;;;;;2.67;2.67;;;;;;;;5104315;27;46690;-73
2023/07/28 03:22:37;;;;;;;;;5.00;3.00;;;;;;;;5103986;27;45348;-73
2023/07/28 03:25:03;;;;;;;;;2.67;2.67;;;;;;;;5104017;27;45250;-73
2023/07/28 03:27:28;;;;;;;;;3.00;3.00;;;;;;;;5103966;27;45740;-73
2023/07/28 03:29:53;;;;;;;;;3.00;3.00;;;;;;;;5117619;27;47720;-73
2023/07/28 03:32:19;;;;;;;;;3.33;3.33;;;;;;;;5124050;27;45339;-73
2023/07/28 03:34:44;;;;;;;;;2.67;2.67;;;;;;;;5143309;27;45527;-73
2023/07/28 03:37:09;;;;;;;;;4.00;4.00;;;;;;;;5124450;27;45571;-73
2023/07/28 03:39:34;;;;;;;;;4.00;4.00;;;;;;;;5124221;27;46570;-73
2023/07/28 03:41:59;;;;;;;;;4.67;4.33;;;;;;;;5124205;27;45383;-73
2023/07/28 03:44:25;;;;;;;;;6.00;6.00;;;;;;;;5143410;27;45395;-73
2023/07/28 03:46:50;;;;;;;;;3.67;3.67;;;;;;;;5124479;27;45709;-73
2023/07/28 03:49:15;;;;;;;;;4.33;4.00;;;;;;;;5124158;27;47888;-73
2023/07/28 03:51:40;;;;;;;;;4.50;4.50;;;;;;;;5124126;27;45411;-73
2023/07/28 03:54:05;;;;;;;;;4.00;4.00;;;;;;;;5124354;27;45368;-73
2023/07/28 03:56:31;;;;;;;;;2.33;2.33;;;;;;;;5124356;27;46105;-73
2023/07/28 03:58:56;;;;;;;;;3.00;3.00;;;;;;;;5124084;27;46335;-73
2023/07/28 04:01:21;;;;;;;;;3.33;2.00;;;;;;;;5124265;27;45318;-73
2023/07/28 04:03:47;;;;;;;;;3.00;3.00;;;;;;;;5124317;27;45617;-73
2023/07/28 04:06:12;;;;;;;;;5.00;4.00;;;;;;;;5124026;27;46132;-73
2023/07/28 04:08:38;;;;;;;;;2.00;2.00;;;;;;;;5123774;27;46947;-73
2023/07/28 04:11:03;;;;;;;;;2.33;2.33;;;;;;;;5124232;27;45750;-73
2023/07/28 04:13:28;;;;;;;;;3.67;3.67;;;;;;;;5124228;27;45413;-74
2023/07/28 04:15:53;;;;;;;;;3.00;3.00;;;;;;;;5123726;27;45506;-73
2023/07/28 04:18:20;;;;;;;;;2.33;2.33;;;;;;;;5123920;27;46829;-73
2023/07/28 04:20:45;;;;;;;;;2.33;2.33;;;;;;;;5123788;27;45602;-73
2023/07/28 04:23:10;;;;;;;;;3.67;3.67;;;;;;;;5124013;27;45237;-73
2023/07/28 04:25:35;;;;;;;;;3.00;2.00;;;;;;;;5123149;27;45318;-73
2023/07/28 04:28:01;;;;;;;;;2.50;2.50;;;;;;;;5123719;27;47250;-73
2023/07/28 04:30:26;;;;;;;;;2.25;1.75;;;;;;;;5088053;27;45326;-73
2023/07/28 04:32:51;;;;;;;;;3.00;3.00;;;;;;;;5103166;27;45262;-73
2023/07/28 04:35:16;;;;;;;;;5.00;3.00;;;;;;;;5103007;27;45811;-73
2023/07/28 04:37:42;;;;;;;;;2.33;2.33;;;;;;;;5102856;27;47388;-72
2023/07/28 04:40:08;;;;;;;;;7.00;5.33;;;;;;;;5102809;27;45314;-73
2023/07/28 04:42:33;;;;;;;;;2.33;2.33;;;;;;;;5103111;27;45397;-72
2023/07/28 04:44:58;;;;;;;;;5.67;5.00;;;;;;;;5102546;27;45924;-72
2023/07/28 04:47:24;;;;;;;;;3.00;3.00;;;;;;;;5102776;27;46508;-73
2023/07/28 04:49:49;;;;;;;;;3.33;3.33;;;;;;;;5102612;27;45388;-73
2023/07/28 04:52:14;;;;;;;;;4.67;4.67;;;;;;;;5102712;27;45330;-73
2023/07/28 04:54:39;;;;;;;;;3.00;3.00;;;;;;;;5102454;27;45650;-72
2023/07/28 04:57:05;;;;;;;;;4.00;4.00;;;;;;;;5102593;27;47155;-72
2023/07/28 04:59:30;;;;;;;;;4.00;2.67;;;;;;;;5102901;27;45333;-72
2023/07/28 05:01:55;;;;;;;;;2.33;2.33;;;;;;;;5102834;27;45476;-73
2023/07/28 05:04:20;;;;;;;;;3.00;2.00;;;;;;;;5102296;27;47445;-72
2023/07/28 05:06:45;;;;;;;;;3.33;2.67;;;;;;;;5121007;27;46310;-72
2023/07/28 05:09:11;;;;;;;;;3.67;3.67;;;;;;;;5102292;27;45451;-72
2023/07/28 05:11:36;;;;;;;;;4.67;3.33;;;;;;;;5102666;27;45306;-71
2023/07/28 05:14:01;;;;;;;;;5.00;4.33;;;;;;;;5102466;27;45616;-71
2023/07/28 05:16:26;;;;;;;;;3.00;3.00;;;;;;;;5102442;27;47731;-72
2023/07/28 05:18:52;;;;;;;;;3.00;3.00;;;;;;;;5102128;27;45393;-73
2023/07/28 05:21:17;;;;;;;;;3.33;2.33;;;;;;;;5102402;27;45381;-72
2023/07/28 05:23:42;;;;;;;;;3.00;2.00;;;;;;;;5102038;27;46294;-72
2023/07/28 05:26:07;;;;;;;;;1.00;1.00;;;;;;;;5101376;27;48477;-72
2023/07/28 05:28:34;;;;;;;;;1.33;1.33;;;;;;;;5104299;27;45272;-72
2023/07/28 05:31:05;;;;;;;;;1.75;1.75;;;;;;;;5141278;27;45494;-72
2023/07/28 05:33:30;;;;;;;;;1.33;1.33;;;;;;;;5140678;27;45542;-72
2023/07/28 05:35:59;;;;;;;;;1.33;1.33;;;;;;;;5141274;27;45385;-72
2023/07/28 05:38:24;;;;;;;;;1.00;1.00;;;;;;;;5122925;27;45314;-73
2023/07/28 05:40:56;;;;;;;;;2.25;2.25;;;;;;;;5140740;27;45402;-73
2023/07/28 05:43:22;;;;;;;;;2.00;1.50;;;;;;;;5141451;27;45414;-73
2023/07/28 05:45:47;;;;;;;;;1.25;1.00;;;;;;;;5141205;27;45320;-73
2023/07/28 05:48:12;;;;;;;;;1.00;1.00;;;;;;;;5122577;27;45341;-73
2023/07/28 05:50:38;;;;;;;;;1.00;1.00;;;;;;;;5122612;27;45347;-73
2023/07/28 05:53:04;;;;;;;;;1.33;1.33;;;;;;;;5122503;27;45271;-73
2023/07/28 05:55:29;;;;;;;;;0.67;0.67;;;;;;;;5122290;27;48172;-73
2023/07/28 05:57:55;;;;;;;;;2.00;0.33;;;;;;;;5125868;27;45409;-73
2023/07/28 06:00:20;;;;;;;;;1.67;0.67;;;;;;;;5126187;27;45171;-72
2023/07/28 06:02:45;;;;;;;;;1.00;0.00;;;;;;;;5126111;27;47042;-73
2023/07/28 06:05:11;;;;;;;;;1.25;0.50;;;;;;;;5125892;27;45564;-73
2023/07/28 06:07:36;;;;;;;;;2.00;2.00;;;;;;;;5125811;27;45163;-73
2023/07/28 06:10:01;;;;;;;;;1.67;1.67;;;;;;;;5125846;27;45237;-73
2023/07/28 06:12:27;;;;;;;;;0.75;0.75;;;;;;;;5126049;27;45837;-72
2023/07/28 06:14:52;;;;;;;;;0.00;0.00;;;;;;;;5125982;27;47618;-72
2023/07/28 06:17:17;;;;;;;;;1.00;1.00;;;;;;;;5125921;27;45379;-72
2023/07/28 06:19:42;;;;;;;;;1.00;1.00;;;;;;;;5126111;27;45347;-73
2023/07/28 06:22:07;;;;;;;;;1.00;1.00;;;;;;;;5125625;27;46987;-73
2023/07/28 06:24:33;;;;;;;;;2.00;2.00;;;;;;;;5125439;27;46177;-72
2023/07/28 06:26:58;;;;;;;;;3.00;1.00;;;;;;;;5125647;27;45286;-72
2023/07/28 06:29:23;;;;;;;;;1.00;1.00;;;;;;;;5116151;27;45312;-72
2023/07/28 06:31:48;;;;;;;;;4.00;4.00;;;;;;;;5105097;27;46054;-72
2023/07/28 06:34:14;;;;;;;;;2.25;2.25;;;;;;;;5104782;27;47785;-72
2023/07/28 06:36:39;;;;;;;;;3.00;3.00;;;;;;;;5104828;27;45419;-72
2023/07/28 06:39:05;;;;;;;;;3.33;3.33;;;;;;;;5104816;27;45425;-72
2023/07/28 06:41:30;;;;;;;;;5.33;4.00;;;;;;;;5104728;27;46657;-72
2023/07/28 06:43:55;;;;;;;;;4.00;3.67;;;;;;;;5104590;27;47182;-72
2023/07/28 06:46:20;;;;;;;;;3.00;3.00;;;;;;;;5104802;27;45320;-72
2023/07/28 06:48:45;;;;;;;;;2.00;2.00;;;;;;;;5104824;27;45344;-72
2023/07/28 06:51:11;;;;;;;;;3.67;3.67;;;;;;;;5104580;27;46608;-72
2023/07/28 06:53:36;;;;;;;;;2.33;2.33;;;;;;;;5104408;27;45412;-73
2023/07/28 06:56:01;;;;;;;;;2.67;2.67;;;;;;;;5104575;27;45401;-72
2023/07/28 06:58:26;;;;;;;;;3.00;3.00;;;;;;;;5104703;27;45314;-73
2023/07/28 07:00:51;;;;;;;;;3.00;3.00;;;;;;;;5104539;27;45465;-73
2023/07/28 07:03:17;;;;;;;;;4.00;4.00;;;;;;;;5104514;27;47196;-72
2023/07/28 07:05:43;;;;;;;;;4.33;2.33;;;;;;;;5104421;27;45322;-73
2023/07/28 07:08:08;;;;;;;;;3.00;3.00;;;;;;;;5103159;27;45314;-73
2023/07/28 07:10:34;;;;;;;;;4.67;4.67;;;;;;;;5104176;27;45619;-73
2023/07/28 07:12:59;;;;;;;;;4.00;3.00;;;;;;;;5104083;27;47088;-73
2023/07/28 07:15:24;;;;;;;;;4.00;4.00;;;;;;;;5104385;27;45748;-73
2023/07/28 07:17:50;;;;;;;;;4.33;4.33;;;;;;;;5104210;27;45365;-73
2023/07/28 07:20:15;;;;;;;;;3.00;3.00;;;;;;;;5104078;27;45516;-73
2023/07/28 07:22:41;;;;;;;;;2.33;2.33;;;;;;;;5104067;27;46286;-73
2023/07/28 07:25:07;;;;;;;;;4.50;4.50;;;;;;;;5103919;27;45224;-73
2023/07/28 07:27:32;;;;;;;;;3.25;3.25;;;;;;;;5104279;27;45335;-73
2023/07/28 07:29:57;;;;;;;;;3.00;3.00;;;;;;;;5105301;27;46128;-73
2023/07/28 07:32:22;;;;;;;;;3.00;3.00;;;;;;;;5103994;27;48088;-73
2023/07/28 07:34:48;;;;;;;;;3.67;3.67;;;;;;;;5104146;27;45276;-73
2023/07/28 07:37:13;;;;;;;;;3.00;3.00;;;;;;;;5103912;27;45458;-73
2023/07/28 07:39:40;;;;;;;;;2.00;2.00;;;;;;;;5103767;27;45802;-73
2023/07/28 07:42:06;;;;;;;;;3.33;3.33;;;;;;;;5103496;27;47168;-73
2023/07/28 07:44:31;;;;;;;;;3.00;3.00;;;;;;;;5103855;27;45560;-74
2023/07/28 07:46:59;;;;;;;;;2.50;2.50;;;;;;;;5103740;27;45449;-73
2023/07/28 07:49:24;;;;;;;;;1.50;1.50;;;;;;;;5103613;27;45891;-73
2023/07/28 07:51:49;;;;;;;;;1.00;1.00;;;;;;;;5103483;27;46947;-73
2023/07/28 07:54:16;;;;;;;;;1.50;1.50;;;;;;;;5103567;27;45328;-72
2023/07/28 07:56:42;;;;;;;;;1.00;1.00;;;;;;;;5103655;27;45343;-72
2023/07/28 07:59:07;;;;;;;;;1.00;1.00;;;;;;;;5103619;27;46445;-72
2023/07/28 08:01:33;;;;;;;;;1.00;1.00;;;;;;;;5103604;27;46660;-72
2023/07/28 08:03:58;;;;;;;;;0.50;0.50;;;;;;;;5103647;27;45991;-72
2023/07/28 08:06:23;;;;;;;;;0.00;0.00;;;;;;;;5103496;27;45342;-72
2023/07/28 08:08:50;;;;;;;;;1.00;1.00;;;;;;;;5103405;27;45955;-72
2023/07/28 08:11:15;;;;;;;;;1.00;1.00;;;;;;;;5103488;27;46343;-71
2023/07/28 08:13:41;;;;;;;;;2.25;1.25;;;;;;;;5103179;27;45357;-72
2023/07/28 08:16:06;;;;;;;;;1.00;0.50;;;;;;;;5103481;27;45247;-73
2023/07/28 08:18:31;;;;;;;;;2.00;1.00;;;;;;;;5102845;27;45634;-73
2023/07/28 08:20:56;;;;;;;;;0.75;0.75;;;;;;;;5103078;27;48395;-73
2023/07/28 08:23:22;;;;;;;;;0.00;0.00;;;;;;;;5103032;27;45372;-72
2023/07/28 08:25:48;;;;;;;;;1.00;1.00;;;;;;;;5103401;27;45491;-72
2023/07/28 08:28:13;;;;;;;;;1.00;0.00;;;;;;;;5103341;27;46107;-73
2023/07/28 08:30:38;;;;;;;;;1.00;0.00;;;;;;;;5123189;27;45439;-72
2023/07/28 08:33:03;;;;;;;;;0.50;0.00;;;;;;;;5123620;27;45251;-73
2023/07/28 08:35:29;;;;;;;;;0.00;0.00;;;;;;;;5123599;27;45415;-74
2023/07/28 08:37:54;;;;;;;;;0.25;0.25;;;;;;;;5142370;27;45518;-72
2023/07/28 08:40:19;;;;;;;;;1.00;1.00;;;;;;;;5116938;27;46570;-72
2023/07/28 08:42:44;;;;;;;;;1.00;0.50;;;;;;;;5101740;27;45603;-72
2023/07/28 08:45:10;;;;;;;;;0.00;0.00;;;;;;;;5102874;27;45331;-73
2023/07/28 08:47:36;;;;;;;;;0.00;0.00;;;;;;;;5123409;27;45309;-74
2023/07/28 08:50:01;;;;;;;;;0.00;0.00;;;;;;;;5120479;27;48674;-74
2023/07/28 08:52:26;;;;;;;;;0.00;0.00;;;;;;;;5120259;27;45159;-72
2023/07/28 08:54:52;;;;;;;;;0.00;0.00;;;;;;;;5102307;27;45331;-74
2023/07/28 08:57:19;;;;;;;;;0.75;0.00;;;;;;;;5102391;27;45816;-74
2023/07/28 08:59:47;;;;;;;;;0.00;0.00;;;;;;;;5102442;27;46738;-73
2023/07/28 09:02:13;;;;;;;;;1.75;0.00;;;;;;;;5102038;27;45711;-73
2023/07/28 09:04:38;;;;;;;;;1.50;0.00;;;;;;;;5102449;27;45328;-75
2023/07/28 09:07:04;;;;;;;;;0.00;0.00;;;;;;;;5102075;27;46080;-74
2023/07/28 09:09:31;;;;;;;;;0.00;0.00;;;;;;;;5101269;27;46592;-73
2023/07/28 09:11:57;;;;;;;;;0.00;0.00;;;;;;;;5101687;27;45330;-73
2023/07/28 09:14:23;;;;;;;;;0.00;0.00;;;;;;;;5102470;27;45239;-72
2023/07/28 09:16:49;;;;;;;;;0.00;0.00;;;;;;;;5102063;27;45499;-73
2023/07/28 09:19:14;;;;;;;;;0.00;0.00;;;;;;;;5101642;27;46920;-73
2023/07/28 09:21:41;;;;;;;;;0.00;0.00;;;;;;;;5112737;27;45417;-73
2023/07/28 09:24:08;;;;;;;;;0.00;0.00;;;;;;;;5122507;27;45337;-72
2023/07/28 09:26:38;;;;;;;;;0.00;0.00;;;;;;;;5122125;27;46889;-73
2023/07/28 09:29:23;;;;;;;;;0.00;0.00;;;;;;;;5115855;27;46379;-72
2023/07/28 09:31:49;;;;;;;;;0.00;0.00;;;;;;;;5101795;27;45354;-72
2023/07/28 09:34:27;;;;;;;;;0.00;0.00;;;;;;;;5105259;27;45372;-72
2023/07/28 09:37:00;;;;;;;;;0.00;0.00;;;;;;;;5104275;27;45728;-71
2023/07/28 09:39:25;;;;;;;;;0.00;0.00;;;;;;;;5105272;27;48378;-72
2023/07/28 09:41:51;;;;;;;;;0.00;0.00;;;;;;;;5123899;27;45593;-72
2023/07/28 09:44:16;;;;;;;;;0.00;0.00;;;;;;;;5126305;27;45446;-73
2023/07/28 09:46:51;;;;;;;;;0.00;0.00;;;;;;;;5118513;27;45479;-73
2023/07/28 09:49:21;;;;;;;;;0.00;0.00;;;;;;;;5105507;27;47372;-72
2023/07/28 09:51:48;;;;;;;;;0.00;0.00;;;;;;;;5105278;27;45306;-72
2023/07/28 09:54:16;;;;;;;;;0.00;0.00;;;;;;;;5104399;27;45370;-72
2023/07/28 09:56:44;;;;;;;;;0.00;0.00;;;;;;;;5104743;27;45406;-73
2023/07/28 09:59:11;;;;;;;;;0.50;0.50;;;;;;;;5105510;27;47068;-72
2023/07/28 10:01:37;;;;;;;;;0.00;0.00;;;;;;;;5104415;27;45478;-73
2023/07/28 10:04:02;;;;;;;;;0.00;0.00;;;;;;;;5105217;27;45447;-73
2023/07/28 10:06:28;;;;;;;;;0.00;0.00;;;;;;;;5104247;27;45473;-73
2023/07/28 10:08:53;;;;;;;;;0.00;0.00;;;;;;;;5105125;27;46857;-73
2023/07/28 10:11:20;;;;;;;;;0.00;0.00;;;;;;;;5104977;27;45555;-74
2023/07/28 10:13:46;;;;;;;;;0.00;0.00;;;;;;;;5105299;27;45361;-75
2023/07/28 10:16:14;;;;;;;;;0.00;0.00;;;;;;;;5104855;27;46428;-74
2023/07/28 10:18:40;;;;;;;;;0.00;0.00;;;;;;;;5104956;27;48221;-74
2023/07/28 10:21:06;;;;;;;;;0.00;0.00;;;;;;;;5104656;27;45275;-74
2023/07/28 10:23:33;;;;;;;;;1.00;1.00;;;;;;;;5105025;27;45287;-73
2023/07/28 10:26:00;;;;;;;;;1.00;0.00;;;;;;;;5104765;27;45717;-74
2023/07/28 10:28:25;;;;;;;;;0.00;0.00;;;;;;;;5106056;27;45342;-74
2023/07/28 10:30:54;;;;;;;;;0.00;0.00;;;;;;;;5125038;27;46256;-74
2023/07/28 10:33:26;;;;;;;;;0.75;0.75;;;;;;;;5125359;27;45325;-74
2023/07/28 10:35:51;;;;;;;;;0.00;0.00;;;;;;;;5124812;27;45477;-73
2023/07/28 10:38:34;;;;;;;;;1.00;1.00;;;;;;;;5125045;27;47254;-74
2023/07/28 10:41:09;;;;;;;;;0.00;0.00;;;;;;;;5125065;27;45323;-73
2023/07/28 10:43:35;;;;;;;;;0.00;0.00;;;;;;;;5125288;27;45396;-73
2023/07/28 10:46:00;;;;;;;;;0.00;0.00;;;;;;;;5105242;27;45437;-73
2023/07/28 10:48:26;;;;;;;;;0.00;0.00;;;;;;;;5104131;27;46612;-72
2023/07/28 10:50:51;;;;;;;;;0.00;0.00;;;;;;;;5128845;27;45310;-72
2023/07/28 10:53:16;;;;;;;;;0.00;0.00;;;;;;;;5125366;27;45259;-73
2023/07/28 10:55:42;;;;;;;;;0.00;0.00;;;;;;;;5143587;27;45282;-73
2023/07/28 10:58:07;;;;;;;;;0.25;0.25;;;;;;;;5104912;27;46493;-73
2023/07/28 11:00:32;;;;;;;;;0.00;0.00;;;;;;;;5104156;27;45449;-73
2023/07/28 11:02:57;;;;;;;;;1.00;0.00;;;;;;;;5104438;27;45332;-73
2023/07/28 11:05:24;;;;;;;;;0.25;0.25;;;;;;;;5104228;27;45374;-73
2023/07/28 11:07:51;;;;;;;;;0.00;0.00;;;;;;;;5103968;27;45297;-74
2023/07/28 11:10:18;;;;;;;;;0.00;0.00;;;;;;;;5103907;27;45323;-74
2023/07/28 11:12:44;;;;;;;;;0.00;0.00;;;;;;;;5104412;27;45314;-74
2023/07/28 11:15:13;;;;;;;;;0.00;0.00;;;;;;;;5104120;27;45386;-74
2023/07/28 11:17:42;;;;;;;;;0.00;0.00;;;;;;;;5100621;27;48137;-74
2023/07/28 11:20:17;;;;;;;;;0.75;0.00;;;;;;;;5083650;27;45358;-74
2023/07/28 11:22:47;;;;;;;;;0.75;0.75;;;;;;;;5101722;27;45282;-75
2023/07/28 11:25:12;;;;;;;;;0.00;0.00;;;;;;;;5103718;27;46629;-74
2023/07/28 11:27:38;;;;;;;;;0.25;0.25;;;;;;;;5117736;27;47415;-74
2023/07/28 11:30:04;;;;;;;;;0.00;0.00;;;;;;;;5107197;27;45343;-74
2023/07/28 11:32:36;;;;;;;;;0.50;0.00;;;;;;;;5102734;27;45301;-74
2023/07/28 11:35:05;;;;;;;;;0.00;0.00;;;;;;;;5103860;27;46404;-74
2023/07/28 11:37:31;;;;;;;;;0.00;0.00;;;;;;;;5103613;27;47404;-75
2023/07/28 11:39:57;;;;;;;;;0.00;0.00;;;;;;;;5103732;27;45304;-74
2023/07/28 11:42:22;;;;;;;;;0.00;0.00;;;;;;;;5103781;27;45438;-74
2023/07/28 11:44:48;;;;;;;;;0.75;0.75;;;;;;;;5103581;27;46070;-73
2023/07/28 11:47:19;;;;;;;;;1.75;1.00;;;;;;;;5122002;27;45348;-73
2023/07/28 11:49:48;;;;;;;;;0.00;0.00;;;;;;;;5096076;27;45876;-73
2023/07/28 11:52:13;;;;;;;;;0.00;0.00;;;;;;;;5103100;27;45372;-74
2023/07/28 11:54:38;;;;;;;;;0.00;0.00;;;;;;;;5100929;27;45879;-74
2023/07/28 11:57:06;;;;;;;;;1.00;1.00;;;;;;;;5103346;27;47277;-73
2023/07/28 11:59:31;;;;;;;;;1.25;1.25;;;;;;;;5103308;27;45321;-74
2023/07/28 12:02:07;;;;;;;;;0.00;0.00;;;;;;;;5103460;27;45355;-74
2023/07/28 12:04:38;;;;;;;;;1.25;1.25;;;;;;;;5103171;27;45245;-74
2023/07/28 12:07:08;;;;;;;;;1.50;1.50;;;;;;;;5103194;27;47087;-74
2023/07/28 12:09:58;;;;;;;;;2.25;2.25;;;;;;;;5103087;27;45625;-73
2023/07/28 12:12:24;;;;;;;;;1.00;1.00;;;;;;;;5103271;27;45414;-74
2023/07/28 12:14:51;;;;;;;;;0.25;0.25;;;;;;;;5102768;27;45419;-74
2023/07/28 12:17:25;;;;;;;;;1.00;1.00;;;;;;;;5102917;27;45462;-75
2023/07/28 12:20:00;;;;;;;;;0.00;0.00;;;;;;;;5102490;27;45422;-74
2023/07/28 12:22:25;;;;;;;;;1.00;1.00;;;;;;;;5102919;27;45418;-75
2023/07/28 12:24:51;;;;;;;;;1.00;0.00;;;;;;;;5112301;27;45545;-73
2023/07/28 12:27:16;;;;;;;;;1.50;0.75;;;;;;;;5123545;27;46503;-74
2023/07/28 12:29:41;;;;;;;;;1.00;1.00;;;;;;;;5111105;27;46097;-74
2023/07/28 12:32:07;;;;;;;;;0.00;0.00;;;;;;;;5102748;27;45295;-74
2023/07/28 12:34:33;;;;;;;;;1.00;1.00;;;;;;;;5108919;27;46135;-74
2023/07/28 12:36:58;;;;;;;;;1.75;1.00;;;;;;;;5123271;27;47941;-74
2023/07/28 12:39:23;;;;;;;;;1.25;1.25;;;;;;;;5123258;27;45246;-74
2023/07/28 12:41:48;;;;;;;;;1.50;1.00;;;;;;;;5120236;27;45345;-73
2023/07/28 12:44:14;;;;;;;;;3.00;3.00;;;;;;;;5120072;27;46614;-73
2023/07/28 12:46:39;;;;;;;;;1.00;1.00;;;;;;;;5119826;27;46257;-73
2023/07/28 12:49:06;;;;;;;;;0.00;0.00;;;;;;;;5102600;27;45755;-73
2023/07/28 12:51:31;;;;;;;;;0.00;0.00;;;;;;;;5099543;27;45926;-74
2023/07/28 12:53:57;;;;;;;;;0.00;0.00;;;;;;;;5099027;27;45326;-73
2023/07/28 12:56:22;;;;;;;;;0.00;0.00;;;;;;;;5098880;27;46331;-73
2023/07/28 12:58:47;;;;;;;;;0.50;0.50;;;;;;;;5099327;27;45316;-73
2023/07/28 13:01:12;;;;;;;;;0.00;0.00;;;;;;;;5099214;27;45345;-73
2023/07/28 13:03:38;;;;;;;;;0.75;0.75;;;;;;;;5099129;27;45704;-73
2023/07/28 13:06:03;;;;;;;;;0.75;0.75;;;;;;;;5098242;27;45258;-73
2023/07/28 13:08:29;;;;;;;;;0.00;0.00;;;;;;;;5098036;27;45429;-73
2023/07/28 13:10:54;;;;;;;;;0.00;0.00;;;;;;;;5107118;27;45382;-73
2023/07/28 13:13:19;;;;;;;;;1.00;1.00;;;;;;;;5119314;27;45823;-73
2023/07/28 13:15:44;;;;;;;;;0.00;0.00;;;;;;;;5107198;27;46489;-73
2023/07/28 13:18:10;;;;;;;;;0.25;0.00;;;;;;;;5099038;27;45319;-73
2023/07/28 13:20:35;;;;;;;;;0.00;0.00;;;;;;;;5099195;27;45488;-74
2023/07/28 13:23:00;;;;;;;;;0.00;0.00;;;;;;;;5098958;27;45376;-73
2023/07/28 13:25:25;;;;;;;;;1.00;1.00;;;;;;;;5098388;27;48467;-73
2023/07/28 13:27:51;;;;;;;;;0.00;0.00;;;;;;;;5099023;27;45349;-72
2023/07/28 13:30:16;;;;;;;;;0.00;0.00;;;;;;;;5117388;27;45237;-73
2023/07/28 13:32:41;;;;;;;;;0.50;0.50;;;;;;;;5119289;27;46844;-73
2023/07/28 13:35:06;;;;;;;;;0.75;0.75;;;;;;;;5119360;27;46712;-73
2023/07/28 13:37:32;;;;;;;;;3.00;1.25;;;;;;;;5119408;27;45349;-72
2023/07/28 13:39:57;;;;;;;;;1.00;1.00;;;;;;;;5119378;27;45320;-73
2023/07/28 13:42:22;;;;;;;;;1.00;1.00;;;;;;;;5119068;27;47022;-73
2023/07/28 13:44:47;;;;;;;;;1.00;1.00;;;;;;;;5118398;27;47088;-73
2023/07/28 13:47:12;;;;;;;;;1.25;1.25;;;;;;;;5118420;27;45852;-73
2023/07/28 13:49:38;;;;;;;;;1.00;1.00;;;;;;;;5119112;27;45389;-73
2023/07/28 13:52:03;;;;;;;;;2.50;2.50;;;;;;;;5101757;27;45679;-73
2023/07/28 13:54:28;;;;;;;;;2.00;2.00;;;;;;;;5118751;27;48399;-73
2023/07/28 13:56:54;;;;;;;;;0.75;0.75;;;;;;;;5119159;27;45237;-73
2023/07/28 13:59:19;;;;;;;;;0.25;0.25;;;;;;;;5118888;27;45309;-73
2023/07/28 14:01:45;;;;;;;;;2.25;1.50;;;;;;;;5119081;27;46867;-73
2023/07/28 14:04:10;;;;;;;;;2.00;2.00;;;;;;;;5118896;27;47056;-72
2023/07/28 14:06:35;;;;;;;;;0.75;0.75;;;;;;;;5120359;27;45339;-72
2023/07/28 14:09:00;;;;;;;;;0.00;0.00;;;;;;;;5118958;27;45257;-72
2023/07/28 14:11:25;;;;;;;;;2.00;2.00;;;;;;;;5118823;27;46430;-72
2023/07/28 14:13:51;;;;;;;;;1.25;1.25;;;;;;;;5120162;27;45202;-73
2023/07/28 14:16:16;;;;;;;;;1.00;1.00;;;;;;;;5118936;27;45249;-73
2023/07/28 14:18:41;;;;;;;;;1.50;1.50;;;;;;;;5113618;27;45419;-73
2023/07/28 14:21:06;;;;;;;;;1.00;1.00;;;;;;;;5092385;27;47081;-75
2023/07/28 14:23:31;;;;;;;;;0.75;0.75;;;;;;;;5098323;27;47692;-74
2023/07/28 14:25:57;;;;;;;;;3.25;3.25;;;;;;;;5097016;27;45316;-72
2023/07/28 14:28:22;;;;;;;;;1.50;1.50;;;;;;;;5099531;27;45346;-72
2023/07/28 14:30:48;;;;;;;;;1.25;1.25;;;;;;;;5121914;27;46857;-72
2023/07/28 14:33:17;;;;;;;;;2.75;2.75;;;;;;;;5100110;27;46931;-72
2023/07/28 14:35:45;;;;;;;;;1.25;1.25;;;;;;;;5098221;27;45356;-73